createdAt,value
2022-08-04T00:02:45.131Z,12.78
2022-08-04T00:06:15.136Z,15.40
2022-08-04T00:09:30.970Z,12.53
2022-08-04T00:12:39.697Z,13.80
2022-08-04T00:15:44.317Z,14.20
2022-08-04T00:19:02.354Z,13.98
2022-08-04T00:22:14.247Z,15.78
2022-08-04T00:25:20.010Z,13.88
2022-08-04T00:28:25.993Z,11.22
2022-08-04T00:31:53.590Z,13.80
2022-08-04T00:34:41.826Z,14.78
2022-08-04T00:37:47.818Z,17.12
2022-08-04T00:41:01.280Z,18.10
2022-08-04T00:44:24.575Z,15.75
2022-08-04T00:47:49.867Z,16.82
2022-08-04T00:51:21.336Z,14.60
2022-08-04T00:55:11.288Z,15.20
2022-08-04T00:58:51.162Z,15.13
2022-08-04T01:02:13.583Z,16.25
2022-08-04T01:05:38.608Z,18.37
2022-08-04T01:09:04.855Z,15.30
2022-08-04T01:12:16.591Z,17.90
2022-08-04T01:15:32.284Z,13.50
2022-08-04T01:19:17.020Z,14.40
2022-08-04T01:22:50.521Z,13.25
2022-08-04T01:26:42.611Z,17.87
2022-08-04T01:29:34.352Z,15.95
2022-08-04T01:32:53.726Z,19.17
2022-08-04T01:36:06.149Z,17.67
2022-08-04T01:39:29.668Z,19.27
2022-08-04T01:42:36.290Z,17.62
2022-08-04T01:45:42.284Z,15.45
2022-08-04T01:48:47.148Z,17.98
2022-08-04T01:51:55.172Z,20.32
2022-08-04T01:55:01.608Z,22.77
2022-08-04T01:58:08.533Z,17.12
2022-08-04T02:01:17.844Z,16.90
2022-08-04T02:04:29.094Z,17.13
2022-08-04T02:08:03.880Z,19.60
2022-08-04T02:11:17.560Z,17.07
2022-08-04T02:14:52.086Z,20.20
2022-08-04T02:18:19.981Z,18.67
2022-08-04T02:21:26.239Z,17.00
2022-08-04T02:24:33.467Z,19.98
2022-08-04T02:27:59.109Z,19.75
2022-08-04T02:30:54.986Z,19.30
2022-08-04T02:34:19.434Z,20.55
2022-08-04T02:37:24.248Z,15.65
2022-08-04T02:40:35.169Z,20.12
2022-08-04T02:43:51.129Z,18.07
2022-08-04T02:46:45.183Z,18.10
2022-08-04T02:49:33.607Z,17.85
2022-08-04T02:52:28.163Z,18.95
2022-08-04T02:55:14.461Z,21.12
2022-08-04T02:58:07.303Z,18.30
2022-08-04T03:01:00.939Z,18.30
2022-08-04T03:04:11.063Z,16.23
2022-08-04T03:07:45.173Z,19.57
2022-08-04T03:11:20.532Z,21.40
2022-08-04T03:14:52.329Z,13.80
2022-08-04T03:18:38.106Z,20.75
2022-08-04T03:22:03.650Z,19.55
2022-08-04T03:25:33.286Z,18.82
2022-08-04T03:29:06.600Z,17.95
2022-08-04T03:32:55.837Z,16.73
2022-08-04T03:36:26.154Z,16.97
2022-08-04T03:39:55.585Z,16.67
2022-08-04T03:43:59.173Z,15.13
2022-08-04T03:46:51.851Z,14.90
2022-08-04T03:50:41.587Z,13.57
2022-08-04T03:54:08.340Z,11.95
2022-08-04T03:57:24.804Z,12.37
2022-08-04T04:00:36.799Z,22.10
2022-08-04T04:04:16.482Z,11.03
2022-08-04T04:07:39.238Z,13.45
2022-08-04T04:11:18.048Z,12.63
2022-08-04T04:15:04.819Z,11.38
2022-08-04T04:18:32.208Z,14.78
2022-08-04T04:21:58.576Z,12.37
2022-08-04T04:25:35.495Z,13.10
2022-08-04T04:29:11.168Z,11.85
2022-08-04T04:32:50.253Z,13.35
2022-08-04T04:36:15.142Z,12.43
2022-08-04T04:40:06.004Z,12.88
2022-08-04T04:43:52.615Z,24.02
2022-08-04T04:47:07.509Z,18.67
2022-08-04T04:50:37.298Z,12.25
2022-08-04T04:54:00.809Z,14.50
2022-08-04T04:57:53.386Z,15.75
2022-08-04T05:00:39.598Z,12.47
2022-08-04T05:04:03.418Z,10.27
2022-08-04T05:07:52.384Z,10.30
2022-08-04T05:11:26.975Z,10.32
2022-08-04T05:14:45.564Z,12.37
2022-08-04T05:17:55.922Z,13.58
2022-08-04T05:21:06.440Z,12.73
2022-08-04T05:24:14.457Z,13.90
2022-08-04T05:27:22.141Z,17.17
2022-08-04T05:30:27.508Z,14.47
2022-08-04T05:33:49.190Z,13.22
2022-08-04T05:36:59.485Z,13.35
2022-08-04T05:40:17.716Z,13.03
2022-08-04T05:43:26.121Z,10.95
2022-08-04T05:46:31.811Z,11.43
2022-08-04T05:49:43.712Z,18.80
2022-08-04T05:52:49.674Z,10.05
2022-08-04T05:55:58.642Z,11.85
2022-08-04T05:58:55.096Z,13.85
2022-08-04T06:02:01.640Z,9.28
2022-08-04T06:05:07.194Z,10.18
2022-08-04T06:08:13.824Z,10.08
2022-08-04T06:11:22.631Z,11.90
2022-08-04T06:14:28.792Z,9.18
2022-08-04T06:19:57.589Z,10.15
2022-08-04T06:20:56.216Z,12.88
2022-08-04T06:24:04.685Z,7.58
2022-08-04T06:27:10.638Z,8.10
2022-08-04T06:30:17.216Z,11.20
2022-08-04T06:33:54.465Z,11.85
2022-08-04T06:36:47.545Z,9.33
2022-08-04T06:39:54.414Z,7.17
2022-08-04T06:43:00.366Z,8.50
2022-08-04T06:46:05.445Z,7.92
2022-08-04T06:49:13.104Z,6.25
2022-08-04T06:52:21.693Z,6.20
2022-08-04T06:55:27.403Z,7.05
2022-08-04T06:58:34.931Z,7.22
2022-08-04T07:01:41.131Z,9.15
2022-08-04T07:04:48.117Z,11.08
2022-08-04T07:07:57.827Z,10.95
2022-08-04T07:10:55.389Z,8.38
2022-08-04T07:13:57.939Z,6.58
2022-08-04T07:17:05.113Z,8.15
2022-08-04T07:20:11.367Z,9.25
2022-08-04T07:23:20.764Z,10.68
2022-08-04T07:26:26.492Z,10.75
2022-08-04T07:29:33.462Z,12.53
2022-08-04T07:32:40.161Z,9.90
2022-08-04T07:36:08.381Z,8.25
2022-08-04T07:38:56.959Z,8.55
2022-08-04T07:42:03.167Z,10.43
2022-08-04T07:45:10.674Z,9.68
2022-08-04T07:48:16.797Z,10.03
2022-08-04T07:51:22.902Z,9.15
2022-08-04T07:54:28.612Z,9.83
2022-08-04T07:57:41.700Z,12.70
2022-08-04T08:00:41.605Z,16.37
2022-08-04T08:03:49.834Z,13.75
2022-08-04T08:06:50.616Z,15.75
2022-08-04T08:09:44.121Z,11.60
2022-08-04T08:12:52.171Z,13.80
2022-08-04T08:15:59.376Z,9.40
2022-08-04T08:19:04.489Z,9.40
2022-08-04T08:22:11.515Z,9.33
2022-08-04T08:25:17.815Z,10.28
2022-08-04T08:28:24.000Z,10.98
2022-08-04T08:31:58.463Z,9.68
2022-08-04T08:34:37.416Z,10.08
2022-08-04T08:37:55.913Z,8.95
2022-08-04T08:41:07.498Z,11.10
2022-08-04T08:45:01.381Z,36.00
2022-08-04T08:48:41.464Z,18.92
2022-08-04T08:52:57.587Z,20.70
2022-08-04T08:55:43.866Z,11.13
2022-08-04T08:59:15.137Z,14.30
2022-08-04T09:03:04.685Z,16.07
2022-08-04T09:06:31.790Z,13.53
2022-08-04T09:10:04.187Z,15.90
2022-08-04T09:13:07.038Z,10.98
2022-08-04T09:16:37.835Z,10.48
2022-08-04T09:20:03.132Z,14.55
2022-08-04T09:23:31.437Z,10.58
2022-08-04T09:26:43.326Z,12.18
2022-08-04T09:30:07.586Z,12.37
2022-08-04T09:33:44.187Z,12.00
2022-08-04T09:36:56.152Z,13.72
2022-08-04T09:40:31.793Z,11.28
2022-08-04T09:43:58.923Z,11.35
2022-08-04T09:47:02.067Z,12.47
2022-08-04T09:50:26.067Z,11.12
2022-08-04T09:54:30.186Z,10.23
2022-08-04T09:58:16.881Z,10.70
2022-08-04T10:01:25.984Z,10.78
2022-08-04T10:04:32.894Z,14.38
2022-08-04T10:08:15.360Z,9.88
2022-08-04T10:11:31.479Z,9.53
2022-08-04T10:15:09.733Z,10.45
2022-08-04T10:18:35.604Z,13.80
2022-08-04T10:21:50.941Z,9.18
2022-08-04T10:25:38.165Z,8.75
2022-08-04T10:28:36.383Z,8.03
2022-08-04T10:31:50.275Z,7.87
2022-08-04T10:35:00.318Z,8.60
2022-08-04T10:38:26.883Z,7.97
2022-08-04T10:41:42.417Z,10.95
2022-08-04T10:45:21.695Z,10.53
2022-08-04T10:48:40.239Z,9.20
2022-08-04T10:52:34.008Z,5.53
2022-08-04T10:56:07.947Z,6.97
2022-08-04T10:58:56.066Z,6.17
2022-08-04T11:05:44.044Z,6.78
2022-08-04T11:08:49.491Z,6.97
2022-08-04T11:12:03.376Z,6.35
2022-08-04T11:15:23.472Z,6.12
2022-08-04T11:18:40.750Z,9.73
2022-08-04T11:21:52.001Z,8.95
2022-08-04T11:25:24.994Z,12.53
2022-08-04T11:29:03.705Z,7.37
2022-08-04T11:32:04.769Z,14.50
2022-08-04T11:35:14.746Z,8.65
2022-08-04T11:38:45.649Z,12.95
2022-08-04T11:42:09.543Z,8.90
2022-08-04T11:45:28.874Z,8.10
2022-08-04T11:48:43.389Z,7.45
2022-08-04T11:51:48.994Z,6.22
2022-08-04T11:54:55.547Z,6.33
2022-08-04T11:58:02.613Z,6.05
2022-08-04T12:01:34.734Z,6.25
2022-08-04T12:04:54.593Z,7.17
2022-08-04T12:08:33.303Z,6.25
2022-08-04T12:11:54.152Z,7.90
2022-08-04T12:15:21.424Z,10.72
2022-08-04T12:18:49.984Z,6.78
2022-08-04T12:22:02.795Z,8.33
2022-08-04T12:25:30.853Z,5.30
2022-08-04T12:29:09.735Z,5.35
2022-08-04T12:32:13.409Z,5.15
2022-08-04T12:35:32.282Z,5.58
2022-08-04T12:38:22.518Z,5.85
2022-08-04T12:41:15.279Z,4.78
2022-08-04T12:44:32.589Z,5.00
2022-08-04T12:47:27.477Z,4.45
2022-08-04T12:50:29.828Z,6.22
2022-08-04T12:53:50.562Z,4.00
2022-08-04T12:56:43.488Z,4.28
2022-08-04T12:59:59.121Z,5.72
2022-08-04T13:03:04.338Z,4.85
2022-08-04T13:06:10.685Z,7.37
2022-08-04T13:09:26.256Z,4.42
2022-08-04T13:12:39.846Z,3.80
2022-08-04T13:15:47.489Z,4.25
2022-08-04T13:19:05.226Z,4.42
2022-08-04T13:22:07.900Z,3.85
2022-08-04T13:26:40.850Z,4.03
2022-08-04T13:28:20.023Z,5.85
2022-08-04T13:31:35.724Z,6.87
2022-08-04T13:34:37.362Z,4.15
2022-08-04T13:37:48.112Z,4.00
2022-08-04T13:40:53.185Z,4.62
2022-08-04T13:44:19.291Z,6.90
2022-08-04T13:47:19.662Z,5.67
2022-08-04T13:50:40.605Z,6.30
2022-08-04T13:53:47.737Z,5.20
2022-08-04T13:56:56.320Z,8.50
2022-08-04T14:00:08.560Z,6.50
2022-08-04T14:03:23.085Z,13.53
2022-08-04T14:06:38.798Z,7.35
2022-08-04T14:10:03.922Z,6.80
2022-08-04T14:13:03.032Z,11.25
2022-08-04T14:16:08.939Z,7.17
2022-08-04T14:19:16.067Z,8.60
2022-08-04T14:22:22.530Z,11.97
2022-08-04T14:25:35.439Z,10.55
2022-08-04T14:29:24.979Z,7.03
2022-08-04T14:31:59.429Z,6.95
2022-08-04T14:35:06.718Z,6.97
2022-08-04T14:38:15.026Z,7.70
2022-08-04T14:41:21.163Z,6.83
2022-08-04T14:44:26.346Z,8.13
2022-08-04T14:47:32.182Z,8.10
2022-08-04T14:50:51.592Z,7.97
2022-08-04T14:53:57.037Z,9.58
2022-08-04T14:57:11.723Z,14.68
2022-08-04T15:00:19.155Z,9.43
2022-08-04T15:03:24.907Z,11.03
2022-08-04T15:06:33.387Z,12.88
2022-08-04T15:09:38.332Z,13.32
2022-08-04T15:12:38.244Z,12.40
2022-08-04T15:15:45.339Z,16.05
2022-08-04T15:18:54.488Z,15.60
2022-08-04T15:22:00.737Z,14.53
2022-08-04T15:25:07.721Z,12.88
2022-08-04T15:28:15.368Z,14.43
2022-08-04T15:32:05.740Z,16.85
2022-08-04T15:34:26.929Z,14.28
2022-08-04T15:37:48.968Z,13.98
2022-08-04T15:41:04.846Z,14.43
2022-08-04T15:44:39.662Z,13.98
2022-08-04T15:47:53.415Z,11.55
2022-08-04T15:51:15.569Z,12.10
2022-08-04T15:54:33.198Z,12.03
2022-08-04T15:58:13.990Z,13.95
2022-08-04T16:01:24.754Z,13.70
2022-08-04T16:04:39.397Z,11.12
2022-08-04T16:08:11.583Z,11.12
2022-08-04T16:11:17.963Z,14.40
2022-08-04T16:14:24.676Z,14.50
2022-08-04T16:17:33.149Z,12.65
2022-08-04T16:20:40.048Z,12.55
2022-08-04T16:24:13.033Z,12.78
2022-08-04T16:27:23.633Z,15.18
2022-08-04T16:30:30.338Z,16.15
2022-08-04T16:33:43.628Z,15.48
2022-08-04T16:37:11.637Z,12.28
2022-08-04T16:40:51.604Z,13.78
2022-08-04T16:43:57.460Z,16.97
2022-08-04T16:47:22.251Z,17.42
2022-08-04T16:50:11.329Z,14.45
2022-08-04T16:53:07.671Z,13.25
2022-08-04T16:56:14.497Z,13.95
2022-08-04T16:59:24.770Z,16.48
2022-08-04T17:02:30.465Z,14.43
2022-08-04T17:05:40.510Z,15.80
2022-08-04T17:08:40.863Z,15.98
2022-08-04T17:11:46.592Z,23.45
2022-08-04T17:14:51.165Z,22.95
2022-08-04T17:18:04.093Z,16.25
2022-08-04T17:21:06.131Z,15.30
2022-08-04T17:24:17.472Z,16.27
2022-08-04T17:28:08.509Z,18.12
2022-08-04T17:30:47.846Z,19.48
2022-08-04T17:33:56.624Z,14.98
2022-08-04T17:37:24.437Z,19.32
2022-08-04T17:40:10.759Z,20.50
2022-08-04T17:44:03.547Z,18.25
2022-08-04T17:46:49.618Z,16.20
2022-08-04T17:49:55.635Z,16.97
2022-08-04T17:53:14.479Z,16.62
2022-08-04T17:56:22.084Z,16.52
2022-08-04T17:59:59.627Z,20.57
2022-08-04T18:03:10.602Z,18.70
2022-08-04T18:06:27.966Z,19.67
2022-08-04T18:10:02.420Z,24.57
2022-08-04T18:12:52.076Z,20.12
2022-08-04T18:15:57.877Z,19.70
2022-08-04T18:19:31.394Z,17.92
2022-08-04T18:22:35.519Z,19.23
2022-08-04T18:25:51.680Z,19.00
2022-08-04T18:28:48.480Z,18.67
2022-08-04T18:31:54.642Z,18.37
2022-08-04T18:35:05.670Z,18.60
2022-08-04T18:38:11.425Z,19.12
2022-08-04T18:41:17.217Z,26.15
2022-08-04T18:44:27.429Z,20.30
2022-08-04T18:47:32.949Z,18.92
2022-08-04T18:51:22.806Z,16.97
2022-08-04T18:53:55.229Z,17.67
2022-08-04T18:57:17.596Z,18.60
2022-08-04T19:00:03.096Z,21.93
2022-08-04T19:03:09.460Z,19.05
2022-08-04T19:06:26.029Z,18.10
2022-08-04T19:09:51.424Z,21.90
2022-08-04T19:12:35.680Z,18.02
2022-08-04T19:15:40.997Z,20.77
2022-08-04T19:18:47.698Z,19.17
2022-08-04T19:22:00.996Z,18.07
2022-08-04T19:25:01.600Z,18.25
2022-08-04T19:28:07.490Z,17.62
2022-08-04T19:31:17.244Z,17.77
2022-08-04T19:34:34.792Z,16.50
2022-08-04T19:37:56.633Z,16.07
2022-08-04T19:40:35.475Z,14.98
2022-08-04T19:43:43.572Z,15.68
2022-08-04T19:46:52.311Z,15.48
2022-08-04T19:50:03.028Z,13.95
2022-08-04T19:56:14.618Z,19.87
2022-08-04T19:59:20.212Z,14.98
2022-08-04T20:02:28.313Z,15.65
2022-08-04T20:05:52.836Z,13.22
2022-08-04T20:08:48.601Z,15.48
2022-08-04T20:11:51.217Z,13.50
2022-08-04T20:14:57.136Z,12.95
2022-08-04T20:21:19.785Z,12.55
2022-08-04T20:24:37.524Z,15.13
2022-08-04T20:27:26.209Z,13.83
2022-08-04T20:30:35.230Z,13.18
2022-08-04T20:33:41.357Z,16.00
2022-08-04T20:36:49.610Z,12.80
2022-08-04T20:39:55.643Z,19.23
2022-08-04T20:42:57.231Z,16.05
2022-08-04T20:46:02.192Z,17.10
2022-08-04T20:49:09.981Z,15.13
2022-08-04T20:52:20.706Z,15.32
2022-08-04T20:55:25.879Z,14.28
2022-08-04T20:58:33.681Z,16.90
2022-08-04T21:01:40.710Z,13.20
2022-08-04T21:04:49.531Z,15.45
2022-08-04T21:07:56.316Z,17.37
2022-08-04T21:11:02.207Z,14.00
2022-08-04T21:14:07.607Z,21.23
2022-08-04T21:17:16.948Z,17.25
2022-08-04T21:20:27.660Z,16.35
2022-08-04T21:23:34.017Z,17.45
2022-08-04T21:26:42.839Z,18.50
2022-08-04T21:29:47.956Z,18.27
2022-08-04T21:32:55.774Z,16.87
2022-08-04T21:36:01.349Z,18.35
2022-08-04T21:39:10.910Z,15.98
2022-08-04T21:42:27.800Z,15.72
2022-08-04T21:45:24.207Z,21.87
2022-08-04T21:48:30.922Z,19.80
2022-08-04T21:52:00.043Z,18.15
2022-08-04T21:54:44.914Z,17.67
2022-08-04T21:57:49.899Z,21.37
2022-08-04T22:00:56.678Z,18.85
2022-08-04T22:04:03.370Z,20.40
2022-08-04T22:07:09.569Z,18.52
2022-08-04T22:10:16.079Z,16.67
2022-08-04T22:13:23.489Z,18.45
2022-08-04T22:16:29.669Z,16.93
2022-08-04T22:19:40.589Z,20.52
2022-08-04T22:22:43.754Z,17.95
2022-08-04T22:25:55.470Z,18.77
2022-08-04T22:28:59.537Z,17.05
2022-08-04T22:32:04.613Z,20.43
2022-08-04T22:35:43.635Z,22.40
2022-08-04T22:38:28.949Z,18.62
2022-08-04T22:41:33.827Z,16.93
2022-08-04T22:44:37.990Z,18.75
2022-08-04T22:47:41.766Z,21.77
2022-08-04T22:50:48.903Z,25.45
2022-08-04T22:53:55.741Z,18.82
2022-08-04T22:57:01.534Z,24.98
2022-08-04T23:00:07.043Z,17.77
2022-08-04T23:03:37.472Z,18.67
2022-08-04T23:06:24.276Z,18.95
2022-08-04T23:09:50.107Z,20.00
2022-08-04T23:12:37.553Z,28.65
2022-08-04T23:15:43.692Z,17.40
2022-08-04T23:18:53.193Z,23.60
2022-08-04T23:22:01.997Z,23.12
2022-08-04T23:25:07.315Z,21.85
2022-08-04T23:28:14.321Z,19.80
2022-08-04T23:31:19.682Z,21.35
2022-08-04T23:34:26.915Z,23.73
2022-08-04T23:37:35.175Z,30.08
2022-08-04T23:40:50.349Z,28.62
2022-08-04T23:43:55.246Z,28.23
2022-08-04T23:47:00.304Z,31.42
2022-08-04T23:50:05.334Z,29.32
2022-08-04T23:53:11.107Z,47.38
2022-08-04T23:56:27.649Z,34.90
2022-08-04T23:59:52.135Z,33.20
